Ossipee, NH (03864)

3:13 PM EST on December 08, 2016 (GMT -0500)
Ossipee Woods | | Change Station

Elev 653 ft 43.69 °N, 71.10 °W | Updated 3 minutes ago

Mostly Cloudy
Mostly Cloudy
37.6 °F
Feels Like 38 °F
N
1.0
Wind Variable Wind from SW
Gusts 1.0 mph

Today
High -- | Low -- °F
--% Chance of Precip.
Yesterday
High -- | Low -- °F
Precip. -- in
Pressure 29.80 in
Visibility 10.0 miles
Clouds Mostly Cloudy 3800 ft
Mostly Cloudy 4900 ft
Overcast 6000 ft
Windchill 38 °F
Dew Point 28 °F
Humidity 69%
Rainfall 0.00 in
Snow Depth Not available.
7:05 AM 4:07 PM
Waxing Gibbous, 66% visible
METAR KLCI 081956Z AUTO 24009KT 10SM BKN038 BKN049 OVC060 03/M04 A2974 RMK AO2 SLP090 T00331039
Pressure 29.80 in
Visibility 10.0 miles
Clouds Mostly Cloudy 3800 ft
Mostly Cloudy 4900 ft
Overcast 6000 ft
Windchill 38 °F
Dew Point 28 °F
Humidity 69%
Rainfall 0.00 in
Snow Depth Not available.
7:05 AM 4:07 PM
Waxing Gibbous, 66% visible
METAR KLCI 081956Z AUTO 24009KT 10SM BKN038 BKN049 OVC060 03/M04 A2974 RMK AO2 SLP090 T00331039

10-Day Weather Forecast

Almanac

Astronomy

Dec. 08, 2016 Rise Set
Actual Time
Civil Twilight
Nautical Twilight
Astronomical Twilight
Moon
Length of Visible Light
Length of Day
Tomorrow will be .
, % of the Moon is Illuminated

Today's Extremes

State Highs State Lows

Community

WunderPhotos

Upload Photos

1,956,277 photos uploaded!

WunderBlog® & News

Nearby

Air Quality

  Air Quality AQ Index Pollutant
Not available.

Snow Depth

Station Depth Elevation

Earthquake Activity

City Distance Mag. Time & Date
Minimum magnitude displayed is 2.5.

Coastal Water Temperatures

Place Temperature

Stations

Nearby Weather Stations

Station Location Temp. Windchill Dew Point Humidity Wind Precip. Elev Updated Type
                   

Watches & Warnings

There are currently no watches in effect.